sensor_id;sensor_type;location;lat;lon;timestamp;P1;durP1;ratioP1;P2;durP2;ratioP2
8252;SDS011;61313;48.396;10.008;2022-07-19T00:02:04;10.80;;;5.60;;
8252;SDS011;61313;48.396;10.008;2022-07-19T00:04:30;6.87;;;5.13;;
8252;SDS011;61313;48.396;10.008;2022-07-19T00:06:57;6.03;;;4.67;;
8252;SDS011;61313;48.396;10.008;2022-07-19T00:09:23;8.90;;;5.50;;
8252;SDS011;61313;48.396;10.008;2022-07-19T00:11:49;6.70;;;4.93;;
8252;SDS011;61313;48.396;10.008;2022-07-19T00:14:15;8.50;;;6.00;;
8252;SDS011;61313;48.396;10.008;2022-07-19T00:16:41;7.87;;;5.07;;
8252;SDS011;61313;48.396;10.008;2022-07-19T00:19:07;6.43;;;4.40;;
8252;SDS011;61313;48.396;10.008;2022-07-19T00:21:33;6.30;;;5.20;;
8252;SDS011;61313;48.396;10.008;2022-07-19T00:23:59;5.73;;;5.10;;
8252;SDS011;61313;48.396;10.008;2022-07-19T00:26:25;7.10;;;5.60;;
8252;SDS011;61313;48.396;10.008;2022-07-19T00:28:52;9.40;;;5.57;;
8252;SDS011;61313;48.396;10.008;2022-07-19T00:31:20;26.43;;;6.43;;
8252;SDS011;61313;48.396;10.008;2022-07-19T00:33:46;7.60;;;5.40;;
8252;SDS011;61313;48.396;10.008;2022-07-19T00:36:12;22.80;;;6.13;;
8252;SDS011;61313;48.396;10.008;2022-07-19T00:38:37;26.00;;;6.20;;
8252;SDS011;61313;48.396;10.008;2022-07-19T00:41:04;26.57;;;6.90;;
8252;SDS011;61313;48.396;10.008;2022-07-19T00:43:29;9.93;;;5.00;;
8252;SDS011;61313;48.396;10.008;2022-07-19T00:45:55;6.80;;;5.00;;
8252;SDS011;61313;48.396;10.008;2022-07-19T00:48:21;8.27;;;5.43;;
8252;SDS011;61313;48.396;10.008;2022-07-19T00:50:48;6.17;;;5.03;;
8252;SDS011;61313;48.396;10.008;2022-07-19T00:53:14;5.97;;;5.13;;
8252;SDS011;61313;48.396;10.008;2022-07-19T00:55:40;9.20;;;5.10;;
8252;SDS011;61313;48.396;10.008;2022-07-19T00:58:08;7.87;;;4.13;;
8252;SDS011;61313;48.396;10.008;2022-07-19T01:00:36;11.50;;;5.23;;
8252;SDS011;61313;48.396;10.008;2022-07-19T01:03:04;5.80;;;4.20;;
8252;SDS011;61313;48.396;10.008;2022-07-19T01:05:33;5.40;;;4.43;;
8252;SDS011;61313;48.396;10.008;2022-07-19T01:07:59;5.87;;;4.80;;
8252;SDS011;61313;48.396;10.008;2022-07-19T01:10:25;6.87;;;4.20;;
8252;SDS011;61313;48.396;10.008;2022-07-19T01:12:52;7.50;;;4.60;;
8252;SDS011;61313;48.396;10.008;2022-07-19T01:15:19;5.23;;;4.73;;
8252;SDS011;61313;48.396;10.008;2022-07-19T01:17:47;7.90;;;5.03;;
8252;SDS011;61313;48.396;10.008;2022-07-19T01:20:14;8.07;;;5.63;;
8252;SDS011;61313;48.396;10.008;2022-07-19T01:22:43;6.17;;;4.03;;
8252;SDS011;61313;48.396;10.008;2022-07-19T01:25:10;5.30;;;4.80;;
8252;SDS011;61313;48.396;10.008;2022-07-19T01:27:39;8.87;;;4.00;;
8252;SDS011;61313;48.396;10.008;2022-07-19T01:30:10;9.23;;;5.00;;
8252;SDS011;61313;48.396;10.008;2022-07-19T01:32:43;12.60;;;6.07;;
8252;SDS011;61313;48.396;10.008;2022-07-19T01:35:10;9.40;;;5.93;;
8252;SDS011;61313;48.396;10.008;2022-07-19T01:37:36;10.17;;;4.83;;
8252;SDS011;61313;48.396;10.008;2022-07-19T01:40:03;9.30;;;5.37;;
8252;SDS011;61313;48.396;10.008;2022-07-19T01:42:30;7.23;;;4.90;;
8252;SDS011;61313;48.396;10.008;2022-07-19T01:44:56;24.60;;;6.13;;
8252;SDS011;61313;48.396;10.008;2022-07-19T01:47:22;15.57;;;6.40;;
8252;SDS011;61313;48.396;10.008;2022-07-19T01:49:48;6.33;;;4.33;;
8252;SDS011;61313;48.396;10.008;2022-07-19T01:52:14;10.03;;;5.20;;
8252;SDS011;61313;48.396;10.008;2022-07-19T01:54:40;5.83;;;5.33;;
8252;SDS011;61313;48.396;10.008;2022-07-19T01:57:05;8.70;;;5.10;;
8252;SDS011;61313;48.396;10.008;2022-07-19T01:59:31;11.03;;;4.47;;
8252;SDS011;61313;48.396;10.008;2022-07-19T02:01:57;12.20;;;5.20;;
8252;SDS011;61313;48.396;10.008;2022-07-19T02:04:22;6.50;;;5.80;;
8252;SDS011;61313;48.396;10.008;2022-07-19T02:06:48;6.00;;;5.43;;
8252;SDS011;61313;48.396;10.008;2022-07-19T02:09:14;6.43;;;5.10;;
8252;SDS011;61313;48.396;10.008;2022-07-19T02:11:40;6.80;;;4.70;;
8252;SDS011;61313;48.396;10.008;2022-07-19T02:14:08;5.13;;;4.73;;
8252;SDS011;61313;48.396;10.008;2022-07-19T02:16:35;20.63;;;6.50;;
8252;SDS011;61313;48.396;10.008;2022-07-19T02:19:02;5.20;;;4.70;;
8252;SDS011;61313;48.396;10.008;2022-07-19T02:21:28;6.80;;;4.50;;
8252;SDS011;61313;48.396;10.008;2022-07-19T02:23:54;5.97;;;5.17;;
8252;SDS011;61313;48.396;10.008;2022-07-19T02:26:20;21.20;;;5.50;;
8252;SDS011;61313;48.396;10.008;2022-07-19T02:28:46;5.47;;;4.93;;
8252;SDS011;61313;48.396;10.008;2022-07-19T02:31:12;8.23;;;4.70;;
8252;SDS011;61313;48.396;10.008;2022-07-19T02:33:37;7.17;;;5.47;;
8252;SDS011;61313;48.396;10.008;2022-07-19T02:36:03;6.03;;;4.63;;
8252;SDS011;61313;48.396;10.008;2022-07-19T02:38:36;11.93;;;6.13;;
8252;SDS011;61313;48.396;10.008;2022-07-19T02:41:12;6.87;;;5.20;;
8252;SDS011;61313;48.396;10.008;2022-07-19T02:43:39;16.30;;;6.07;;
8252;SDS011;61313;48.396;10.008;2022-07-19T02:46:05;11.00;;;5.77;;
8252;SDS011;61313;48.396;10.008;2022-07-19T02:48:31;7.63;;;4.90;;
8252;SDS011;61313;48.396;10.008;2022-07-19T02:50:57;10.90;;;5.20;;
8252;SDS011;61313;48.396;10.008;2022-07-19T02:53:23;5.47;;;4.57;;
8252;SDS011;61313;48.396;10.008;2022-07-19T02:55:49;7.43;;;4.87;;
8252;SDS011;61313;48.396;10.008;2022-07-19T02:58:15;22.10;;;5.70;;
8252;SDS011;61313;48.396;10.008;2022-07-19T03:00:41;10.60;;;5.13;;
8252;SDS011;61313;48.396;10.008;2022-07-19T03:03:07;12.03;;;5.00;;
8252;SDS011;61313;48.396;10.008;2022-07-19T03:05:51;7.67;;;4.53;;
8252;SDS011;61313;48.396;10.008;2022-07-19T03:08:17;6.70;;;5.30;;
8252;SDS011;61313;48.396;10.008;2022-07-19T03:10:43;14.40;;;5.10;;
8252;SDS011;61313;48.396;10.008;2022-07-19T03:13:08;9.90;;;4.70;;
8252;SDS011;61313;48.396;10.008;2022-07-19T03:15:35;17.47;;;5.23;;
8252;SDS011;61313;48.396;10.008;2022-07-19T03:18:01;19.00;;;5.60;;
8252;SDS011;61313;48.396;10.008;2022-07-19T03:20:28;8.60;;;5.10;;
8252;SDS011;61313;48.396;10.008;2022-07-19T03:22:53;24.37;;;6.30;;
8252;SDS011;61313;48.396;10.008;2022-07-19T03:25:19;21.97;;;6.20;;
8252;SDS011;61313;48.396;10.008;2022-07-19T03:27:45;15.53;;;5.73;;
8252;SDS011;61313;48.396;10.008;2022-07-19T03:30:11;12.90;;;5.67;;
8252;SDS011;61313;48.396;10.008;2022-07-19T03:32:36;5.00;;;4.60;;
8252;SDS011;61313;48.396;10.008;2022-07-19T03:35:02;23.80;;;6.00;;
8252;SDS011;61313;48.396;10.008;2022-07-19T03:37:28;17.00;;;5.57;;
8252;SDS011;61313;48.396;10.008;2022-07-19T03:39:54;15.30;;;5.10;;
8252;SDS011;61313;48.396;10.008;2022-07-19T03:42:20;34.50;;;8.10;;
8252;SDS011;61313;48.396;10.008;2022-07-19T03:44:45;19.77;;;6.00;;
8252;SDS011;61313;48.396;10.008;2022-07-19T03:47:11;11.63;;;5.10;;
8252;SDS011;61313;48.396;10.008;2022-07-19T03:49:37;10.10;;;4.90;;
8252;SDS011;61313;48.396;10.008;2022-07-19T03:52:03;10.87;;;6.00;;
8252;SDS011;61313;48.396;10.008;2022-07-19T03:54:28;8.20;;;4.87;;
8252;SDS011;61313;48.396;10.008;2022-07-19T03:56:54;14.90;;;5.23;;
8252;SDS011;61313;48.396;10.008;2022-07-19T03:59:20;24.27;;;6.80;;
8252;SDS011;61313;48.396;10.008;2022-07-19T04:01:49;26.20;;;7.23;;
8252;SDS011;61313;48.396;10.008;2022-07-19T04:04:15;37.73;;;7.20;;
8252;SDS011;61313;48.396;10.008;2022-07-19T04:06:41;21.97;;;5.50;;
8252;SDS011;61313;48.396;10.008;2022-07-19T04:09:07;71.20;;;10.03;;
8252;SDS011;61313;48.396;10.008;2022-07-19T04:11:32;31.07;;;7.30;;
8252;SDS011;61313;48.396;10.008;2022-07-19T04:13:58;40.33;;;8.57;;
8252;SDS011;61313;48.396;10.008;2022-07-19T04:16:24;26.20;;;6.57;;
8252;SDS011;61313;48.396;10.008;2022-07-19T04:18:49;23.13;;;6.87;;
8252;SDS011;61313;48.396;10.008;2022-07-19T04:21:15;46.83;;;8.73;;
8252;SDS011;61313;48.396;10.008;2022-07-19T04:23:41;10.40;;;5.23;;
8252;SDS011;61313;48.396;10.008;2022-07-19T04:26:06;26.73;;;6.07;;
8252;SDS011;61313;48.396;10.008;2022-07-19T04:28:32;17.17;;;6.00;;
8252;SDS011;61313;48.396;10.008;2022-07-19T04:30:58;51.67;;;8.40;;
8252;SDS011;61313;48.396;10.008;2022-07-19T04:33:24;34.67;;;8.67;;
8252;SDS011;61313;48.396;10.008;2022-07-19T04:35:52;48.83;;;7.80;;
8252;SDS011;61313;48.396;10.008;2022-07-19T04:38:19;12.73;;;6.10;;
8252;SDS011;61313;48.396;10.008;2022-07-19T04:40:45;47.70;;;8.57;;
8252;SDS011;61313;48.396;10.008;2022-07-19T04:43:11;35.57;;;7.80;;
8252;SDS011;61313;48.396;10.008;2022-07-19T04:45:37;25.20;;;6.50;;
8252;SDS011;61313;48.396;10.008;2022-07-19T04:48:04;33.10;;;7.60;;
8252;SDS011;61313;48.396;10.008;2022-07-19T04:50:30;96.90;;;13.70;;
8252;SDS011;61313;48.396;10.008;2022-07-19T04:52:56;40.07;;;8.60;;
8252;SDS011;61313;48.396;10.008;2022-07-19T04:55:22;58.60;;;11.30;;
8252;SDS011;61313;48.396;10.008;2022-07-19T04:57:48;38.70;;;8.00;;
8252;SDS011;61313;48.396;10.008;2022-07-19T05:00:14;42.40;;;8.53;;
8252;SDS011;61313;48.396;10.008;2022-07-19T05:02:40;45.70;;;7.20;;
8252;SDS011;61313;48.396;10.008;2022-07-19T05:05:05;27.43;;;6.47;;
8252;SDS011;61313;48.396;10.008;2022-07-19T05:07:31;9.93;;;5.27;;
8252;SDS011;61313;48.396;10.008;2022-07-19T05:10:00;20.43;;;5.90;;
8252;SDS011;61313;48.396;10.008;2022-07-19T05:12:26;40.83;;;8.57;;
8252;SDS011;61313;48.396;10.008;2022-07-19T05:14:52;107.53;;;13.17;;
8252;SDS011;61313;48.396;10.008;2022-07-19T05:17:17;78.13;;;10.00;;
8252;SDS011;61313;48.396;10.008;2022-07-19T05:19:43;13.60;;;6.33;;
8252;SDS011;61313;48.396;10.008;2022-07-19T05:22:09;104.70;;;12.30;;
8252;SDS011;61313;48.396;10.008;2022-07-19T05:24:35;7.73;;;4.70;;
8252;SDS011;61313;48.396;10.008;2022-07-19T05:27:00;6.23;;;4.60;;
8252;SDS011;61313;48.396;10.008;2022-07-19T05:29:26;7.87;;;4.57;;
8252;SDS011;61313;48.396;10.008;2022-07-19T05:31:52;9.53;;;4.77;;
8252;SDS011;61313;48.396;10.008;2022-07-19T05:34:18;7.63;;;5.23;;
8252;SDS011;61313;48.396;10.008;2022-07-19T05:36:43;19.37;;;6.27;;
8252;SDS011;61313;48.396;10.008;2022-07-19T05:39:09;9.10;;;5.00;;
8252;SDS011;61313;48.396;10.008;2022-07-19T05:41:35;10.20;;;5.80;;
8252;SDS011;61313;48.396;10.008;2022-07-19T05:44:01;8.10;;;5.47;;
8252;SDS011;61313;48.396;10.008;2022-07-19T05:46:27;8.03;;;5.50;;
8252;SDS011;61313;48.396;10.008;2022-07-19T05:48:52;21.33;;;6.30;;
8252;SDS011;61313;48.396;10.008;2022-07-19T05:51:18;9.07;;;5.70;;
8252;SDS011;61313;48.396;10.008;2022-07-19T05:53:44;16.30;;;5.33;;
8252;SDS011;61313;48.396;10.008;2022-07-19T05:56:10;9.00;;;5.47;;
8252;SDS011;61313;48.396;10.008;2022-07-19T05:58:35;8.80;;;4.70;;
8252;SDS011;61313;48.396;10.008;2022-07-19T06:01:05;31.37;;;7.50;;
8252;SDS011;61313;48.396;10.008;2022-07-19T06:03:44;6.53;;;4.90;;
8252;SDS011;61313;48.396;10.008;2022-07-19T06:06:13;4.73;;;4.30;;
8252;SDS011;61313;48.396;10.008;2022-07-19T06:08:40;26.30;;;5.40;;
8252;SDS011;61313;48.396;10.008;2022-07-19T06:11:06;7.20;;;4.30;;
8252;SDS011;61313;48.396;10.008;2022-07-19T06:13:31;8.40;;;5.03;;
8252;SDS011;61313;48.396;10.008;2022-07-19T06:15:57;6.17;;;4.83;;
8252;SDS011;61313;48.396;10.008;2022-07-19T06:18:23;12.77;;;4.80;;
8252;SDS011;61313;48.396;10.008;2022-07-19T06:20:50;13.50;;;4.80;;
8252;SDS011;61313;48.396;10.008;2022-07-19T06:23:15;5.20;;;3.97;;
8252;SDS011;61313;48.396;10.008;2022-07-19T06:25:42;5.20;;;4.40;;
8252;SDS011;61313;48.396;10.008;2022-07-19T06:28:08;7.60;;;4.20;;
8252;SDS011;61313;48.396;10.008;2022-07-19T06:30:35;5.37;;;4.87;;
8252;SDS011;61313;48.396;10.008;2022-07-19T06:35:30;8.40;;;5.10;;
8252;SDS011;61313;48.396;10.008;2022-07-19T06:37:56;6.50;;;4.83;;
8252;SDS011;61313;48.396;10.008;2022-07-19T06:40:22;10.70;;;5.10;;
8252;SDS011;61313;48.396;10.008;2022-07-19T06:42:47;7.77;;;4.90;;
8252;SDS011;61313;48.396;10.008;2022-07-19T06:45:13;7.10;;;4.57;;
8252;SDS011;61313;48.396;10.008;2022-07-19T06:47:40;8.20;;;4.93;;
8252;SDS011;61313;48.396;10.008;2022-07-19T06:50:06;10.47;;;5.20;;
8252;SDS011;61313;48.396;10.008;2022-07-19T06:52:32;5.33;;;4.03;;
8252;SDS011;61313;48.396;10.008;2022-07-19T06:54:58;7.60;;;4.50;;
8252;SDS011;61313;48.396;10.008;2022-07-19T06:57:23;9.60;;;4.60;;
8252;SDS011;61313;48.396;10.008;2022-07-19T06:59:49;4.83;;;4.20;;
8252;SDS011;61313;48.396;10.008;2022-07-19T07:02:15;7.33;;;5.33;;
8252;SDS011;61313;48.396;10.008;2022-07-19T07:04:40;5.57;;;4.23;;
8252;SDS011;61313;48.396;10.008;2022-07-19T07:07:06;7.10;;;4.77;;
8252;SDS011;61313;48.396;10.008;2022-07-19T07:09:32;5.30;;;4.13;;
8252;SDS011;61313;48.396;10.008;2022-07-19T07:11:57;4.87;;;4.10;;
8252;SDS011;61313;48.396;10.008;2022-07-19T07:14:23;8.83;;;5.07;;
8252;SDS011;61313;48.396;10.008;2022-07-19T07:16:49;10.27;;;5.10;;
8252;SDS011;61313;48.396;10.008;2022-07-19T07:19:14;11.40;;;4.43;;
8252;SDS011;61313;48.396;10.008;2022-07-19T07:21:40;5.60;;;4.20;;
8252;SDS011;61313;48.396;10.008;2022-07-19T07:24:06;4.90;;;3.80;;
8252;SDS011;61313;48.396;10.008;2022-07-19T07:26:32;5.33;;;4.20;;
8252;SDS011;61313;48.396;10.008;2022-07-19T07:28:58;36.87;;;6.10;;
8252;SDS011;61313;48.396;10.008;2022-07-19T07:31:24;12.57;;;4.27;;
8252;SDS011;61313;48.396;10.008;2022-07-19T07:33:50;7.33;;;4.70;;
8252;SDS011;61313;48.396;10.008;2022-07-19T07:36:16;21.63;;;6.87;;
8252;SDS011;61313;48.396;10.008;2022-07-19T07:38:41;13.97;;;4.83;;
8252;SDS011;61313;48.396;10.008;2022-07-19T07:41:07;7.17;;;3.87;;
8252;SDS011;61313;48.396;10.008;2022-07-19T07:43:34;6.63;;;4.83;;
8252;SDS011;61313;48.396;10.008;2022-07-19T07:46:01;9.83;;;5.00;;
8252;SDS011;61313;48.396;10.008;2022-07-19T07:48:27;7.87;;;4.00;;
8252;SDS011;61313;48.396;10.008;2022-07-19T07:50:52;19.03;;;5.13;;
8252;SDS011;61313;48.396;10.008;2022-07-19T07:53:18;23.73;;;5.30;;
8252;SDS011;61313;48.396;10.008;2022-07-19T07:55:44;4.93;;;4.00;;
8252;SDS011;61313;48.396;10.008;2022-07-19T07:58:10;5.17;;;4.43;;
8252;SDS011;61313;48.396;10.008;2022-07-19T08:00:37;22.63;;;5.60;;
8252;SDS011;61313;48.396;10.008;2022-07-19T08:03:05;10.23;;;4.37;;
8252;SDS011;61313;48.396;10.008;2022-07-19T08:05:31;4.93;;;4.13;;
8252;SDS011;61313;48.396;10.008;2022-07-19T08:07:58;4.90;;;3.60;;
8252;SDS011;61313;48.396;10.008;2022-07-19T08:10:26;9.57;;;4.40;;
8252;SDS011;61313;48.396;10.008;2022-07-19T08:12:56;9.00;;;4.50;;
8252;SDS011;61313;48.396;10.008;2022-07-19T08:15:22;8.97;;;4.10;;
8252;SDS011;61313;48.396;10.008;2022-07-19T08:17:47;39.17;;;8.00;;
8252;SDS011;61313;48.396;10.008;2022-07-19T08:20:14;5.93;;;4.70;;
8252;SDS011;61313;48.396;10.008;2022-07-19T08:22:39;8.30;;;4.20;;
8252;SDS011;61313;48.396;10.008;2022-07-19T08:25:05;7.80;;;4.37;;
8252;SDS011;61313;48.396;10.008;2022-07-19T08:27:32;57.33;;;8.10;;
8252;SDS011;61313;48.396;10.008;2022-07-19T08:29:58;10.97;;;5.37;;
8252;SDS011;61313;48.396;10.008;2022-07-19T08:32:25;6.60;;;4.13;;
8252;SDS011;61313;48.396;10.008;2022-07-19T08:34:50;7.50;;;4.20;;
8252;SDS011;61313;48.396;10.008;2022-07-19T08:37:16;6.70;;;4.00;;
8252;SDS011;61313;48.396;10.008;2022-07-19T08:39:42;13.60;;;5.00;;
8252;SDS011;61313;48.396;10.008;2022-07-19T08:42:08;7.90;;;4.40;;
8252;SDS011;61313;48.396;10.008;2022-07-19T08:44:35;21.60;;;5.43;;
8252;SDS011;61313;48.396;10.008;2022-07-19T08:47:04;15.73;;;6.37;;
8252;SDS011;61313;48.396;10.008;2022-07-19T08:49:30;23.47;;;6.00;;
8252;SDS011;61313;48.396;10.008;2022-07-19T08:51:56;4.90;;;4.00;;
8252;SDS011;61313;48.396;10.008;2022-07-19T08:54:22;18.30;;;4.00;;
8252;SDS011;61313;48.396;10.008;2022-07-19T08:56:48;9.67;;;3.77;;
8252;SDS011;61313;48.396;10.008;2022-07-19T08:59:33;18.30;;;3.67;;
8252;SDS011;61313;48.396;10.008;2022-07-19T09:01:58;6.67;;;3.50;;
8252;SDS011;61313;48.396;10.008;2022-07-19T09:04:24;11.73;;;4.23;;
8252;SDS011;61313;48.396;10.008;2022-07-19T09:06:53;5.97;;;3.53;;
8252;SDS011;61313;48.396;10.008;2022-07-19T09:09:29;5.90;;;2.60;;
8252;SDS011;61313;48.396;10.008;2022-07-19T09:11:58;7.17;;;3.37;;
8252;SDS011;61313;48.396;10.008;2022-07-19T09:14:26;9.70;;;3.30;;
8252;SDS011;61313;48.396;10.008;2022-07-19T09:19:35;4.33;;;3.30;;
8252;SDS011;61313;48.396;10.008;2022-07-19T09:22:13;7.50;;;3.13;;
8252;SDS011;61313;48.396;10.008;2022-07-19T09:24:41;7.20;;;3.17;;
8252;SDS011;61313;48.396;10.008;2022-07-19T09:27:11;5.90;;;3.53;;
8252;SDS011;61313;48.396;10.008;2022-07-19T09:29:42;7.97;;;3.17;;
8252;SDS011;61313;48.396;10.008;2022-07-19T09:32:10;5.03;;;3.50;;
8252;SDS011;61313;48.396;10.008;2022-07-19T09:34:49;15.63;;;4.17;;
8252;SDS011;61313;48.396;10.008;2022-07-19T09:37:18;4.17;;;3.47;;
8252;SDS011;61313;48.396;10.008;2022-07-19T09:39:46;7.50;;;4.10;;
8252;SDS011;61313;48.396;10.008;2022-07-19T09:42:15;3.80;;;3.20;;
8252;SDS011;61313;48.396;10.008;2022-07-19T09:44:42;5.40;;;3.00;;
8252;SDS011;61313;48.396;10.008;2022-07-19T09:47:09;31.60;;;5.13;;
8252;SDS011;61313;48.396;10.008;2022-07-19T09:49:35;5.47;;;3.30;;
8252;SDS011;61313;48.396;10.008;2022-07-19T09:52:01;4.00;;;3.60;;
8252;SDS011;61313;48.396;10.008;2022-07-19T09:54:28;6.13;;;3.30;;
8252;SDS011;61313;48.396;10.008;2022-07-19T09:56:56;9.80;;;3.83;;
8252;SDS011;61313;48.396;10.008;2022-07-19T09:59:24;6.57;;;3.13;;
8252;SDS011;61313;48.396;10.008;2022-07-19T10:01:52;3.70;;;3.30;;
8252;SDS011;61313;48.396;10.008;2022-07-19T10:04:20;9.43;;;4.90;;
8252;SDS011;61313;48.396;10.008;2022-07-19T10:06:48;4.20;;;3.60;;
8252;SDS011;61313;48.396;10.008;2022-07-19T10:09:17;9.00;;;4.10;;
8252;SDS011;61313;48.396;10.008;2022-07-19T10:11:44;4.80;;;4.30;;
8252;SDS011;61313;48.396;10.008;2022-07-19T10:14:10;10.57;;;3.93;;
8252;SDS011;61313;48.396;10.008;2022-07-19T10:22:00;7.80;;;3.80;;
8252;SDS011;61313;48.396;10.008;2022-07-19T10:32:38;4.40;;;2.90;;
8252;SDS011;61313;48.396;10.008;2022-07-19T10:35:18;7.00;;;3.77;;
8252;SDS011;61313;48.396;10.008;2022-07-19T10:40:39;7.50;;;5.53;;
8252;SDS011;61313;48.396;10.008;2022-07-19T10:43:14;5.83;;;3.83;;
8252;SDS011;61313;48.396;10.008;2022-07-19T10:45:41;13.57;;;4.00;;
8252;SDS011;61313;48.396;10.008;2022-07-19T10:48:19;7.50;;;3.50;;
8252;SDS011;61313;48.396;10.008;2022-07-19T10:50:53;7.67;;;3.90;;
8252;SDS011;61313;48.396;10.008;2022-07-19T10:58:56;8.43;;;4.77;;
8252;SDS011;61313;48.396;10.008;2022-07-19T11:01:25;3.90;;;3.37;;
8252;SDS011;61313;48.396;10.008;2022-07-19T11:03:53;7.80;;;3.37;;
8252;SDS011;61313;48.396;10.008;2022-07-19T11:06:39;10.00;;;3.77;;
8252;SDS011;61313;48.396;10.008;2022-07-19T11:09:05;6.93;;;3.53;;
8252;SDS011;61313;48.396;10.008;2022-07-19T11:11:31;4.00;;;3.60;;
8252;SDS011;61313;48.396;10.008;2022-07-19T11:13:57;4.50;;;3.53;;
8252;SDS011;61313;48.396;10.008;2022-07-19T11:16:24;3.40;;;3.10;;
8252;SDS011;61313;48.396;10.008;2022-07-19T11:18:50;10.90;;;3.43;;
8252;SDS011;61313;48.396;10.008;2022-07-19T11:21:16;4.03;;;3.63;;
8252;SDS011;61313;48.396;10.008;2022-07-19T11:23:43;9.03;;;3.33;;
8252;SDS011;61313;48.396;10.008;2022-07-19T11:28:40;6.07;;;3.20;;
8252;SDS011;61313;48.396;10.008;2022-07-19T11:33:40;4.53;;;3.10;;
8252;SDS011;61313;48.396;10.008;2022-07-19T11:36:07;4.00;;;3.60;;
8252;SDS011;61313;48.396;10.008;2022-07-19T11:38:41;5.47;;;3.30;;
8252;SDS011;61313;48.396;10.008;2022-07-19T11:41:11;8.23;;;3.57;;
8252;SDS011;61313;48.396;10.008;2022-07-19T11:43:38;4.00;;;3.10;;
8252;SDS011;61313;48.396;10.008;2022-07-19T11:46:04;8.37;;;3.50;;
8252;SDS011;61313;48.396;10.008;2022-07-19T11:48:30;3.40;;;3.10;;
8252;SDS011;61313;48.396;10.008;2022-07-19T11:50:57;5.97;;;3.23;;
8252;SDS011;61313;48.396;10.008;2022-07-19T11:53:31;8.57;;;3.40;;
8252;SDS011;61313;48.396;10.008;2022-07-19T11:55:57;6.77;;;3.00;;
8252;SDS011;61313;48.396;10.008;2022-07-19T11:58:23;5.70;;;2.83;;
8252;SDS011;61313;48.396;10.008;2022-07-19T12:00:49;9.23;;;3.00;;
8252;SDS011;61313;48.396;10.008;2022-07-19T12:03:16;6.87;;;2.90;;
8252;SDS011;61313;48.396;10.008;2022-07-19T12:08:40;4.87;;;3.10;;
8252;SDS011;61313;48.396;10.008;2022-07-19T12:13:48;5.10;;;3.00;;
8252;SDS011;61313;48.396;10.008;2022-07-19T12:16:15;18.37;;;4.93;;
8252;SDS011;61313;48.396;10.008;2022-07-19T12:18:45;10.57;;;3.27;;
8252;SDS011;61313;48.396;10.008;2022-07-19T12:21:20;3.70;;;2.50;;
8252;SDS011;61313;48.396;10.008;2022-07-19T12:26:37;7.40;;;3.17;;
8252;SDS011;61313;48.396;10.008;2022-07-19T12:31:58;6.00;;;3.30;;
8252;SDS011;61313;48.396;10.008;2022-07-19T12:34:29;10.23;;;3.20;;
8252;SDS011;61313;48.396;10.008;2022-07-19T12:37:17;4.70;;;3.30;;
8252;SDS011;61313;48.396;10.008;2022-07-19T12:40:01;11.00;;;3.27;;
8252;SDS011;61313;48.396;10.008;2022-07-19T12:45:08;5.10;;;2.83;;
8252;SDS011;61313;48.396;10.008;2022-07-19T12:47:42;3.90;;;3.33;;
8252;SDS011;61313;48.396;10.008;2022-07-19T12:50:08;5.30;;;3.20;;
8252;SDS011;61313;48.396;10.008;2022-07-19T12:52:43;5.40;;;3.20;;
8252;SDS011;61313;48.396;10.008;2022-07-19T12:55:09;4.00;;;3.00;;
8252;SDS011;61313;48.396;10.008;2022-07-19T12:57:35;4.90;;;2.87;;
8252;SDS011;61313;48.396;10.008;2022-07-19T13:00:04;8.50;;;3.27;;
8252;SDS011;61313;48.396;10.008;2022-07-19T13:02:31;6.07;;;3.13;;
8252;SDS011;61313;48.396;10.008;2022-07-19T13:04:56;5.33;;;3.97;;
8252;SDS011;61313;48.396;10.008;2022-07-19T13:07:25;4.50;;;2.60;;
8252;SDS011;61313;48.396;10.008;2022-07-19T13:09:50;9.07;;;3.80;;
8252;SDS011;61313;48.396;10.008;2022-07-19T13:12:16;9.27;;;3.93;;
8252;SDS011;61313;48.396;10.008;2022-07-19T13:14:42;7.50;;;3.90;;
8252;SDS011;61313;48.396;10.008;2022-07-19T13:17:08;6.90;;;3.47;;
8252;SDS011;61313;48.396;10.008;2022-07-19T13:19:36;8.40;;;3.13;;
8252;SDS011;61313;48.396;10.008;2022-07-19T13:22:03;10.33;;;3.60;;
8252;SDS011;61313;48.396;10.008;2022-07-19T13:24:29;16.40;;;4.10;;
8252;SDS011;61313;48.396;10.008;2022-07-19T13:26:55;5.73;;;3.10;;
8252;SDS011;61313;48.396;10.008;2022-07-19T13:29:20;5.03;;;3.13;;
8252;SDS011;61313;48.396;10.008;2022-07-19T13:31:47;15.80;;;4.77;;
8252;SDS011;61313;48.396;10.008;2022-07-19T13:34:13;13.83;;;4.10;;
8252;SDS011;61313;48.396;10.008;2022-07-19T13:36:39;15.30;;;4.23;;
8252;SDS011;61313;48.396;10.008;2022-07-19T13:39:04;4.43;;;3.00;;
8252;SDS011;61313;48.396;10.008;2022-07-19T13:41:30;10.13;;;3.40;;
8252;SDS011;61313;48.396;10.008;2022-07-19T13:43:56;7.67;;;3.67;;
8252;SDS011;61313;48.396;10.008;2022-07-19T13:46:22;8.67;;;3.50;;
8252;SDS011;61313;48.396;10.008;2022-07-19T13:48:48;4.27;;;3.50;;
8252;SDS011;61313;48.396;10.008;2022-07-19T13:51:14;7.93;;;3.27;;
8252;SDS011;61313;48.396;10.008;2022-07-19T13:53:40;6.77;;;3.80;;
8252;SDS011;61313;48.396;10.008;2022-07-19T13:56:06;12.63;;;3.83;;
8252;SDS011;61313;48.396;10.008;2022-07-19T13:58:31;16.30;;;4.10;;
8252;SDS011;61313;48.396;10.008;2022-07-19T14:00:58;5.03;;;3.03;;
8252;SDS011;61313;48.396;10.008;2022-07-19T14:03:24;8.00;;;3.40;;
8252;SDS011;61313;48.396;10.008;2022-07-19T14:05:50;14.33;;;3.90;;
8252;SDS011;61313;48.396;10.008;2022-07-19T14:08:16;6.53;;;3.97;;
8252;SDS011;61313;48.396;10.008;2022-07-19T14:10:42;8.27;;;3.67;;
8252;SDS011;61313;48.396;10.008;2022-07-19T14:13:08;8.50;;;4.30;;
8252;SDS011;61313;48.396;10.008;2022-07-19T14:15:34;8.20;;;3.67;;
8252;SDS011;61313;48.396;10.008;2022-07-19T14:18:01;10.10;;;4.00;;
8252;SDS011;61313;48.396;10.008;2022-07-19T14:20:26;4.13;;;3.73;;
8252;SDS011;61313;48.396;10.008;2022-07-19T14:22:52;7.90;;;4.00;;
8252;SDS011;61313;48.396;10.008;2022-07-19T14:25:21;9.97;;;4.10;;
8252;SDS011;61313;48.396;10.008;2022-07-19T14:27:48;19.23;;;5.17;;
8252;SDS011;61313;48.396;10.008;2022-07-19T14:30:17;31.80;;;6.10;;
8252;SDS011;61313;48.396;10.008;2022-07-19T14:32:42;8.00;;;4.07;;
8252;SDS011;61313;48.396;10.008;2022-07-19T14:35:08;12.70;;;4.47;;
8252;SDS011;61313;48.396;10.008;2022-07-19T14:37:34;7.43;;;4.13;;
8252;SDS011;61313;48.396;10.008;2022-07-19T14:40:00;6.03;;;4.60;;
8252;SDS011;61313;48.396;10.008;2022-07-19T14:42:26;13.00;;;4.30;;
8252;SDS011;61313;48.396;10.008;2022-07-19T14:44:54;6.20;;;4.10;;
8252;SDS011;61313;48.396;10.008;2022-07-19T14:47:21;8.37;;;4.33;;
8252;SDS011;61313;48.396;10.008;2022-07-19T14:49:47;14.13;;;5.43;;
8252;SDS011;61313;48.396;10.008;2022-07-19T14:52:13;9.10;;;4.03;;
8252;SDS011;61313;48.396;10.008;2022-07-19T14:54:38;7.37;;;5.40;;
8252;SDS011;61313;48.396;10.008;2022-07-19T14:57:04;15.87;;;4.70;;
8252;SDS011;61313;48.396;10.008;2022-07-19T14:59:30;7.00;;;4.73;;
8252;SDS011;61313;48.396;10.008;2022-07-19T15:01:56;5.43;;;4.60;;
8252;SDS011;61313;48.396;10.008;2022-07-19T15:04:22;6.63;;;4.77;;
8252;SDS011;61313;48.396;10.008;2022-07-19T15:06:47;8.53;;;4.77;;
8252;SDS011;61313;48.396;10.008;2022-07-19T15:09:13;7.37;;;4.60;;
8252;SDS011;61313;48.396;10.008;2022-07-19T15:11:39;7.10;;;4.23;;
8252;SDS011;61313;48.396;10.008;2022-07-19T15:14:06;8.47;;;4.87;;
8252;SDS011;61313;48.396;10.008;2022-07-19T15:16:32;5.00;;;4.07;;
8252;SDS011;61313;48.396;10.008;2022-07-19T15:18:58;27.27;;;5.60;;
8252;SDS011;61313;48.396;10.008;2022-07-19T15:21:23;5.93;;;4.93;;
8252;SDS011;61313;48.396;10.008;2022-07-19T15:23:49;6.60;;;5.40;;
8252;SDS011;61313;48.396;10.008;2022-07-19T15:26:15;9.17;;;5.90;;
8252;SDS011;61313;48.396;10.008;2022-07-19T15:28:41;9.73;;;5.70;;